sensor_id;sensor_type;location;lat;lon;timestamp;P1;durP1;ratioP1;P2;durP2;ratioP2
51828;SDS011;37881;48.024;8.774;2023-08-08T00:01:02;4.38;;;2.72;;
51828;SDS011;37881;48.024;8.774;2023-08-08T00:03:29;4.35;;;2.88;;
51828;SDS011;37881;48.024;8.774;2023-08-08T00:05:56;5.55;;;3.00;;
51828;SDS011;37881;48.024;8.774;2023-08-08T00:08:23;4.33;;;2.60;;
51828;SDS011;37881;48.024;8.774;2023-08-08T00:10:50;4.97;;;2.80;;
51828;SDS011;37881;48.024;8.774;2023-08-08T00:13:17;5.70;;;2.70;;
51828;SDS011;37881;48.024;8.774;2023-08-08T00:15:43;4.72;;;2.55;;
51828;SDS011;37881;48.024;8.774;2023-08-08T00:18:10;5.03;;;2.85;;
51828;SDS011;37881;48.024;8.774;2023-08-08T00:20:37;4.73;;;2.90;;
51828;SDS011;37881;48.024;8.774;2023-08-08T00:23:04;4.68;;;3.00;;
51828;SDS011;37881;48.024;8.774;2023-08-08T00:25:30;6.18;;;3.35;;
51828;SDS011;37881;48.024;8.774;2023-08-08T00:27:57;5.65;;;2.65;;
51828;SDS011;37881;48.024;8.774;2023-08-08T00:30:24;5.50;;;2.78;;
51828;SDS011;37881;48.024;8.774;2023-08-08T00:32:51;4.83;;;2.80;;
51828;SDS011;37881;48.024;8.774;2023-08-08T00:35:17;5.32;;;2.60;;
51828;SDS011;37881;48.024;8.774;2023-08-08T00:37:44;4.78;;;2.55;;
51828;SDS011;37881;48.024;8.774;2023-08-08T00:40:11;5.25;;;2.80;;
51828;SDS011;37881;48.024;8.774;2023-08-08T00:42:38;4.80;;;2.97;;
51828;SDS011;37881;48.024;8.774;2023-08-08T00:45:04;4.93;;;3.00;;
51828;SDS011;37881;48.024;8.774;2023-08-08T00:47:32;5.90;;;2.70;;
51828;SDS011;37881;48.024;8.774;2023-08-08T00:50:00;7.15;;;2.88;;
51828;SDS011;37881;48.024;8.774;2023-08-08T00:52:29;4.97;;;2.60;;
51828;SDS011;37881;48.024;8.774;2023-08-08T00:54:56;5.05;;;2.80;;
51828;SDS011;37881;48.024;8.774;2023-08-08T00:57:23;5.33;;;2.50;;
51828;SDS011;37881;48.024;8.774;2023-08-08T00:59:50;5.25;;;3.20;;
51828;SDS011;37881;48.024;8.774;2023-08-08T01:02:17;5.68;;;3.45;;
51828;SDS011;37881;48.024;8.774;2023-08-08T01:04:44;7.35;;;3.58;;
51828;SDS011;37881;48.024;8.774;2023-08-08T01:07:20;13.63;;;5.78;;
51828;SDS011;37881;48.024;8.774;2023-08-08T01:10:01;15.73;;;7.13;;
51828;SDS011;37881;48.024;8.774;2023-08-08T01:12:48;34.85;;;16.27;;
51828;SDS011;37881;48.024;8.774;2023-08-08T01:15:19;27.13;;;12.77;;
51828;SDS011;37881;48.024;8.774;2023-08-08T01:17:46;26.88;;;12.18;;
51828;SDS011;37881;48.024;8.774;2023-08-08T01:20:14;16.25;;;7.97;;
51828;SDS011;37881;48.024;8.774;2023-08-08T01:23:09;8.43;;;4.73;;
51828;SDS011;37881;48.024;8.774;2023-08-08T01:25:38;19.27;;;10.20;;
51828;SDS011;37881;48.024;8.774;2023-08-08T01:28:06;11.95;;;6.30;;
51828;SDS011;37881;48.024;8.774;2023-08-08T01:30:33;7.43;;;3.75;;
51828;SDS011;37881;48.024;8.774;2023-08-08T01:33:00;8.45;;;4.05;;
51828;SDS011;37881;48.024;8.774;2023-08-08T01:35:29;10.10;;;4.77;;
51828;SDS011;37881;48.024;8.774;2023-08-08T01:38:00;9.60;;;4.00;;
51828;SDS011;37881;48.024;8.774;2023-08-08T01:40:34;9.70;;;4.72;;
51828;SDS011;37881;48.024;8.774;2023-08-08T01:43:02;6.43;;;3.90;;
51828;SDS011;37881;48.024;8.774;2023-08-08T01:45:30;4.80;;;2.78;;
51828;SDS011;37881;48.024;8.774;2023-08-08T01:47:57;10.47;;;5.70;;
51828;SDS011;37881;48.024;8.774;2023-08-08T01:50:24;7.65;;;3.90;;
51828;SDS011;37881;48.024;8.774;2023-08-08T01:52:52;6.00;;;3.00;;
51828;SDS011;37881;48.024;8.774;2023-08-08T01:55:18;5.60;;;2.97;;
51828;SDS011;37881;48.024;8.774;2023-08-08T01:57:45;6.55;;;2.97;;
51828;SDS011;37881;48.024;8.774;2023-08-08T02:00:12;4.60;;;2.60;;
51828;SDS011;37881;48.024;8.774;2023-08-08T02:02:39;5.63;;;2.72;;
51828;SDS011;37881;48.024;8.774;2023-08-08T02:05:06;5.60;;;2.88;;
51828;SDS011;37881;48.024;8.774;2023-08-08T02:07:33;5.00;;;2.78;;
51828;SDS011;37881;48.024;8.774;2023-08-08T02:10:00;4.90;;;3.08;;
51828;SDS011;37881;48.024;8.774;2023-08-08T02:12:27;5.50;;;2.90;;
51828;SDS011;37881;48.024;8.774;2023-08-08T02:14:56;5.10;;;2.80;;
51828;SDS011;37881;48.024;8.774;2023-08-08T02:17:24;5.50;;;3.30;;
51828;SDS011;37881;48.024;8.774;2023-08-08T02:19:52;4.47;;;2.70;;
51828;SDS011;37881;48.024;8.774;2023-08-08T02:22:19;5.20;;;2.90;;
51828;SDS011;37881;48.024;8.774;2023-08-08T02:24:46;5.73;;;2.97;;
51828;SDS011;37881;48.024;8.774;2023-08-08T02:27:13;4.70;;;2.60;;
51828;SDS011;37881;48.024;8.774;2023-08-08T02:29:40;5.28;;;2.55;;
51828;SDS011;37881;48.024;8.774;2023-08-08T02:32:07;5.65;;;3.40;;
51828;SDS011;37881;48.024;8.774;2023-08-08T02:34:34;6.35;;;3.10;;
51828;SDS011;37881;48.024;8.774;2023-08-08T02:37:01;7.47;;;3.17;;
51828;SDS011;37881;48.024;8.774;2023-08-08T02:39:27;5.03;;;3.17;;
51828;SDS011;37881;48.024;8.774;2023-08-08T02:41:54;5.28;;;2.75;;
51828;SDS011;37881;48.024;8.774;2023-08-08T02:44:21;5.28;;;2.70;;
51828;SDS011;37881;48.024;8.774;2023-08-08T02:46:48;5.43;;;3.10;;
51828;SDS011;37881;48.024;8.774;2023-08-08T02:49:15;6.30;;;3.07;;
51828;SDS011;37881;48.024;8.774;2023-08-08T02:51:42;5.68;;;2.85;;
51828;SDS011;37881;48.024;8.774;2023-08-08T02:54:09;4.97;;;2.90;;
51828;SDS011;37881;48.024;8.774;2023-08-08T02:56:35;4.93;;;2.90;;
51828;SDS011;37881;48.024;8.774;2023-08-08T02:59:02;4.88;;;2.80;;
51828;SDS011;37881;48.024;8.774;2023-08-08T03:01:29;4.87;;;3.30;;
51828;SDS011;37881;48.024;8.774;2023-08-08T03:03:56;6.40;;;2.90;;
51828;SDS011;37881;48.024;8.774;2023-08-08T03:06:22;5.80;;;2.90;;
51828;SDS011;37881;48.024;8.774;2023-08-08T03:08:49;5.32;;;3.08;;
51828;SDS011;37881;48.024;8.774;2023-08-08T03:11:16;5.82;;;2.97;;
51828;SDS011;37881;48.024;8.774;2023-08-08T03:13:43;5.97;;;3.00;;
51828;SDS011;37881;48.024;8.774;2023-08-08T03:16:09;4.70;;;2.80;;
51828;SDS011;37881;48.024;8.774;2023-08-08T03:18:36;6.28;;;3.20;;
51828;SDS011;37881;48.024;8.774;2023-08-08T03:21:03;5.75;;;3.17;;
51828;SDS011;37881;48.024;8.774;2023-08-08T03:23:30;6.07;;;3.42;;
51828;SDS011;37881;48.024;8.774;2023-08-08T03:25:57;4.90;;;3.00;;
51828;SDS011;37881;48.024;8.774;2023-08-08T03:28:24;5.47;;;3.00;;
51828;SDS011;37881;48.024;8.774;2023-08-08T03:30:51;5.38;;;3.00;;
51828;SDS011;37881;48.024;8.774;2023-08-08T03:33:17;5.03;;;2.90;;
51828;SDS011;37881;48.024;8.774;2023-08-08T03:35:44;4.95;;;3.05;;
51828;SDS011;37881;48.024;8.774;2023-08-08T03:38:11;5.97;;;3.30;;
51828;SDS011;37881;48.024;8.774;2023-08-08T03:40:38;6.32;;;2.75;;
51828;SDS011;37881;48.024;8.774;2023-08-08T03:43:04;5.72;;;3.13;;
51828;SDS011;37881;48.024;8.774;2023-08-08T03:45:32;5.07;;;3.00;;
51828;SDS011;37881;48.024;8.774;2023-08-08T03:47:59;4.90;;;2.80;;
51828;SDS011;37881;48.024;8.774;2023-08-08T03:50:26;4.70;;;3.07;;
51828;SDS011;37881;48.024;8.774;2023-08-08T03:52:52;5.15;;;2.78;;
51828;SDS011;37881;48.024;8.774;2023-08-08T03:55:19;5.25;;;3.00;;
51828;SDS011;37881;48.024;8.774;2023-08-08T03:57:46;5.70;;;2.70;;
51828;SDS011;37881;48.024;8.774;2023-08-08T04:00:13;5.13;;;3.10;;
51828;SDS011;37881;48.024;8.774;2023-08-08T04:02:40;6.03;;;2.90;;
51828;SDS011;37881;48.024;8.774;2023-08-08T04:05:07;6.18;;;2.92;;
51828;SDS011;37881;48.024;8.774;2023-08-08T04:07:33;5.93;;;3.28;;
51828;SDS011;37881;48.024;8.774;2023-08-08T04:10:00;5.53;;;2.80;;
51828;SDS011;37881;48.024;8.774;2023-08-08T04:12:28;6.55;;;3.13;;
51828;SDS011;37881;48.024;8.774;2023-08-08T04:14:54;5.10;;;3.10;;
51828;SDS011;37881;48.024;8.774;2023-08-08T04:17:21;4.90;;;3.08;;
51828;SDS011;37881;48.024;8.774;2023-08-08T04:19:48;5.32;;;3.20;;
51828;SDS011;37881;48.024;8.774;2023-08-08T04:22:15;6.68;;;3.38;;
51828;SDS011;37881;48.024;8.774;2023-08-08T04:24:42;6.38;;;3.38;;
51828;SDS011;37881;48.024;8.774;2023-08-08T04:27:09;6.83;;;2.97;;
51828;SDS011;37881;48.024;8.774;2023-08-08T04:29:36;4.85;;;3.03;;
51828;SDS011;37881;48.024;8.774;2023-08-08T04:32:04;6.65;;;3.08;;
51828;SDS011;37881;48.024;8.774;2023-08-08T04:34:31;5.68;;;3.50;;
51828;SDS011;37881;48.024;8.774;2023-08-08T04:36:58;6.15;;;3.20;;
51828;SDS011;37881;48.024;8.774;2023-08-08T04:39:24;5.87;;;3.30;;
51828;SDS011;37881;48.024;8.774;2023-08-08T04:41:51;8.55;;;3.50;;
51828;SDS011;37881;48.024;8.774;2023-08-08T04:44:18;6.82;;;3.20;;
51828;SDS011;37881;48.024;8.774;2023-08-08T04:46:45;6.75;;;3.00;;
51828;SDS011;37881;48.024;8.774;2023-08-08T04:49:11;5.47;;;3.05;;
51828;SDS011;37881;48.024;8.774;2023-08-08T04:51:38;6.53;;;3.00;;
51828;SDS011;37881;48.024;8.774;2023-08-08T04:54:05;5.38;;;3.22;;
51828;SDS011;37881;48.024;8.774;2023-08-08T04:56:31;5.93;;;3.28;;
51828;SDS011;37881;48.024;8.774;2023-08-08T04:58:58;5.88;;;3.28;;
51828;SDS011;37881;48.024;8.774;2023-08-08T05:01:25;8.45;;;3.42;;
51828;SDS011;37881;48.024;8.774;2023-08-08T05:03:52;4.97;;;3.00;;
51828;SDS011;37881;48.024;8.774;2023-08-08T05:06:21;7.97;;;3.20;;
51828;SDS011;37881;48.024;8.774;2023-08-08T05:08:49;4.32;;;3.00;;
51828;SDS011;37881;48.024;8.774;2023-08-08T05:11:18;5.80;;;2.70;;
51828;SDS011;37881;48.024;8.774;2023-08-08T05:13:44;5.35;;;3.05;;
51828;SDS011;37881;48.024;8.774;2023-08-08T05:16:11;5.77;;;3.00;;
51828;SDS011;37881;48.024;8.774;2023-08-08T05:18:38;4.20;;;2.60;;
51828;SDS011;37881;48.024;8.774;2023-08-08T05:21:05;5.55;;;2.90;;
51828;SDS011;37881;48.024;8.774;2023-08-08T05:23:32;4.35;;;2.63;;
51828;SDS011;37881;48.024;8.774;2023-08-08T05:25:59;5.72;;;3.10;;
51828;SDS011;37881;48.024;8.774;2023-08-08T05:28:25;5.03;;;2.83;;
51828;SDS011;37881;48.024;8.774;2023-08-08T05:30:52;7.80;;;3.30;;
51828;SDS011;37881;48.024;8.774;2023-08-08T05:33:19;5.60;;;3.17;;
51828;SDS011;37881;48.024;8.774;2023-08-08T05:35:46;5.13;;;3.00;;
51828;SDS011;37881;48.024;8.774;2023-08-08T05:38:13;5.38;;;3.17;;
51828;SDS011;37881;48.024;8.774;2023-08-08T05:40:39;6.00;;;3.20;;
51828;SDS011;37881;48.024;8.774;2023-08-08T05:43:06;4.93;;;2.80;;
51828;SDS011;37881;48.024;8.774;2023-08-08T05:45:33;5.32;;;3.38;;
51828;SDS011;37881;48.024;8.774;2023-08-08T05:48:00;4.70;;;3.00;;
51828;SDS011;37881;48.024;8.774;2023-08-08T05:50:27;4.32;;;2.85;;
51828;SDS011;37881;48.024;8.774;2023-08-08T05:52:54;4.70;;;3.00;;
51828;SDS011;37881;48.024;8.774;2023-08-08T05:55:21;6.25;;;3.00;;
51828;SDS011;37881;48.024;8.774;2023-08-08T05:57:48;4.70;;;3.00;;
51828;SDS011;37881;48.024;8.774;2023-08-08T06:00:15;7.40;;;2.95;;
51828;SDS011;37881;48.024;8.774;2023-08-08T06:02:42;4.75;;;3.05;;
51828;SDS011;37881;48.024;8.774;2023-08-08T06:05:10;5.67;;;2.63;;
51828;SDS011;37881;48.024;8.774;2023-08-08T06:07:37;4.45;;;2.60;;
51828;SDS011;37881;48.024;8.774;2023-08-08T06:10:04;4.75;;;2.40;;
51828;SDS011;37881;48.024;8.774;2023-08-08T06:12:32;5.68;;;2.42;;
51828;SDS011;37881;48.024;8.774;2023-08-08T06:14:58;4.70;;;2.40;;
51828;SDS011;37881;48.024;8.774;2023-08-08T06:17:25;4.60;;;2.10;;
51828;SDS011;37881;48.024;8.774;2023-08-08T06:19:52;3.40;;;2.15;;
51828;SDS011;37881;48.024;8.774;2023-08-08T06:22:20;4.75;;;2.28;;
51828;SDS011;37881;48.024;8.774;2023-08-08T06:24:49;4.75;;;2.30;;
51828;SDS011;37881;48.024;8.774;2023-08-08T06:27:16;5.57;;;2.50;;
51828;SDS011;37881;48.024;8.774;2023-08-08T06:29:43;6.30;;;3.43;;
51828;SDS011;37881;48.024;8.774;2023-08-08T06:32:10;3.90;;;2.42;;
51828;SDS011;37881;48.024;8.774;2023-08-08T06:34:37;6.40;;;2.38;;
51828;SDS011;37881;48.024;8.774;2023-08-08T06:37:03;5.40;;;2.15;;
51828;SDS011;37881;48.024;8.774;2023-08-08T06:39:30;4.65;;;2.30;;
51828;SDS011;37881;48.024;8.774;2023-08-08T06:41:57;3.97;;;2.00;;
51828;SDS011;37881;48.024;8.774;2023-08-08T06:44:25;4.50;;;2.05;;
51828;SDS011;37881;48.024;8.774;2023-08-08T06:46:51;4.75;;;1.98;;
51828;SDS011;37881;48.024;8.774;2023-08-08T06:49:18;4.07;;;1.98;;
51828;SDS011;37881;48.024;8.774;2023-08-08T06:51:45;4.40;;;2.00;;
51828;SDS011;37881;48.024;8.774;2023-08-08T06:54:12;4.13;;;2.10;;
51828;SDS011;37881;48.024;8.774;2023-08-08T06:56:39;4.55;;;2.10;;
51828;SDS011;37881;48.024;8.774;2023-08-08T06:59:05;3.33;;;1.95;;
51828;SDS011;37881;48.024;8.774;2023-08-08T07:01:32;4.82;;;2.60;;
51828;SDS011;37881;48.024;8.774;2023-08-08T07:04:00;6.70;;;3.10;;
51828;SDS011;37881;48.024;8.774;2023-08-08T07:06:27;5.33;;;2.90;;
51828;SDS011;37881;48.024;8.774;2023-08-08T07:08:54;3.10;;;2.00;;
51828;SDS011;37881;48.024;8.774;2023-08-08T07:11:20;3.33;;;2.03;;
51828;SDS011;37881;48.024;8.774;2023-08-08T07:13:48;3.17;;;1.80;;
51828;SDS011;37881;48.024;8.774;2023-08-08T07:16:15;3.45;;;1.63;;
51828;SDS011;37881;48.024;8.774;2023-08-08T07:18:42;2.93;;;1.50;;
51828;SDS011;37881;48.024;8.774;2023-08-08T07:21:08;2.50;;;1.30;;
51828;SDS011;37881;48.024;8.774;2023-08-08T07:23:35;3.55;;;1.25;;
51828;SDS011;37881;48.024;8.774;2023-08-08T07:26:02;3.55;;;1.38;;
51828;SDS011;37881;48.024;8.774;2023-08-08T07:28:29;3.03;;;1.52;;
51828;SDS011;37881;48.024;8.774;2023-08-08T07:30:55;2.30;;;1.20;;
51828;SDS011;37881;48.024;8.774;2023-08-08T07:33:22;2.47;;;1.40;;
51828;SDS011;37881;48.024;8.774;2023-08-08T07:35:49;3.15;;;1.50;;
51828;SDS011;37881;48.024;8.774;2023-08-08T07:38:16;4.78;;;1.67;;
51828;SDS011;37881;48.024;8.774;2023-08-08T07:40:42;2.92;;;1.63;;
51828;SDS011;37881;48.024;8.774;2023-08-08T07:43:10;5.67;;;3.70;;
51828;SDS011;37881;48.024;8.774;2023-08-08T07:45:37;2.70;;;1.70;;
51828;SDS011;37881;48.024;8.774;2023-08-08T07:48:04;3.85;;;1.60;;
51828;SDS011;37881;48.024;8.774;2023-08-08T07:50:31;2.58;;;1.38;;
51828;SDS011;37881;48.024;8.774;2023-08-08T07:52:58;3.20;;;1.42;;
51828;SDS011;37881;48.024;8.774;2023-08-08T07:55:25;2.67;;;1.60;;
51828;SDS011;37881;48.024;8.774;2023-08-08T07:57:51;3.70;;;1.80;;
51828;SDS011;37881;48.024;8.774;2023-08-08T08:00:18;2.88;;;1.60;;
51828;SDS011;37881;48.024;8.774;2023-08-08T08:02:46;3.20;;;1.65;;
51828;SDS011;37881;48.024;8.774;2023-08-08T08:05:13;2.95;;;1.40;;
51828;SDS011;37881;48.024;8.774;2023-08-08T08:07:40;2.83;;;1.50;;
51828;SDS011;37881;48.024;8.774;2023-08-08T08:10:08;3.30;;;1.67;;
51828;SDS011;37881;48.024;8.774;2023-08-08T08:12:36;3.25;;;1.33;;
51828;SDS011;37881;48.024;8.774;2023-08-08T08:15:03;2.92;;;1.55;;
51828;SDS011;37881;48.024;8.774;2023-08-08T08:17:30;2.83;;;1.60;;
51828;SDS011;37881;48.024;8.774;2023-08-08T08:19:57;4.77;;;1.70;;
51828;SDS011;37881;48.024;8.774;2023-08-08T08:22:25;3.42;;;2.05;;
51828;SDS011;37881;48.024;8.774;2023-08-08T08:24:51;3.08;;;1.60;;
51828;SDS011;37881;48.024;8.774;2023-08-08T08:27:18;5.00;;;1.75;;
51828;SDS011;37881;48.024;8.774;2023-08-08T08:29:45;4.20;;;1.60;;
51828;SDS011;37881;48.024;8.774;2023-08-08T08:32:12;4.40;;;1.70;;
51828;SDS011;37881;48.024;8.774;2023-08-08T08:34:38;2.75;;;1.70;;
51828;SDS011;37881;48.024;8.774;2023-08-08T08:37:05;3.60;;;1.80;;
51828;SDS011;37881;48.024;8.774;2023-08-08T08:39:32;2.72;;;1.63;;
51828;SDS011;37881;48.024;8.774;2023-08-08T08:41:59;2.75;;;1.50;;
51828;SDS011;37881;48.024;8.774;2023-08-08T08:44:30;2.60;;;1.50;;
51828;SDS011;37881;48.024;8.774;2023-08-08T08:46:59;3.33;;;1.70;;
51828;SDS011;37881;48.024;8.774;2023-08-08T08:49:30;3.70;;;1.50;;
51828;SDS011;37881;48.024;8.774;2023-08-08T08:51:58;3.17;;;1.70;;
51828;SDS011;37881;48.024;8.774;2023-08-08T08:54:28;2.92;;;1.67;;
51828;SDS011;37881;48.024;8.774;2023-08-08T08:56:58;2.70;;;1.50;;
51828;SDS011;37881;48.024;8.774;2023-08-08T08:59:25;4.03;;;1.63;;
51828;SDS011;37881;48.024;8.774;2023-08-08T09:01:53;3.05;;;1.60;;
51828;SDS011;37881;48.024;8.774;2023-08-08T09:04:20;2.85;;;1.50;;
51828;SDS011;37881;48.024;8.774;2023-08-08T09:06:48;3.28;;;1.33;;
51828;SDS011;37881;48.024;8.774;2023-08-08T09:09:16;3.33;;;1.60;;
51828;SDS011;37881;48.024;8.774;2023-08-08T09:11:50;3.30;;;1.60;;
51828;SDS011;37881;48.024;8.774;2023-08-08T09:14:22;3.00;;;1.80;;
51828;SDS011;37881;48.024;8.774;2023-08-08T09:16:50;4.47;;;1.60;;
51828;SDS011;37881;48.024;8.774;2023-08-08T09:19:20;3.17;;;1.63;;
51828;SDS011;37881;48.024;8.774;2023-08-08T09:21:48;2.83;;;1.60;;
51828;SDS011;37881;48.024;8.774;2023-08-08T09:24:15;3.80;;;1.80;;
51828;SDS011;37881;48.024;8.774;2023-08-08T09:26:42;3.75;;;1.40;;
51828;SDS011;37881;48.024;8.774;2023-08-08T09:29:13;3.20;;;1.40;;
51828;SDS011;37881;48.024;8.774;2023-08-08T09:31:41;3.05;;;1.60;;
51828;SDS011;37881;48.024;8.774;2023-08-08T09:34:07;2.80;;;1.70;;
51828;SDS011;37881;48.024;8.774;2023-08-08T09:36:34;3.17;;;1.70;;
51828;SDS011;37881;48.024;8.774;2023-08-08T09:39:01;4.45;;;1.77;;
51828;SDS011;37881;48.024;8.774;2023-08-08T09:41:28;5.00;;;1.90;;
51828;SDS011;37881;48.024;8.774;2023-08-08T09:43:55;2.67;;;1.35;;
51828;SDS011;37881;48.024;8.774;2023-08-08T09:46:22;4.00;;;1.70;;
51828;SDS011;37881;48.024;8.774;2023-08-08T09:48:49;3.60;;;1.50;;
51828;SDS011;37881;48.024;8.774;2023-08-08T09:51:17;3.40;;;1.63;;
51828;SDS011;37881;48.024;8.774;2023-08-08T09:53:44;3.72;;;1.77;;
51828;SDS011;37881;48.024;8.774;2023-08-08T09:56:13;3.47;;;1.70;;
51828;SDS011;37881;48.024;8.774;2023-08-08T09:58:41;2.87;;;1.70;;
51828;SDS011;37881;48.024;8.774;2023-08-08T10:01:09;3.58;;;1.60;;
51828;SDS011;37881;48.024;8.774;2023-08-08T10:03:39;3.38;;;1.60;;
51828;SDS011;37881;48.024;8.774;2023-08-08T10:06:09;2.90;;;1.48;;
51828;SDS011;37881;48.024;8.774;2023-08-08T10:08:36;3.03;;;1.60;;
51828;SDS011;37881;48.024;8.774;2023-08-08T10:11:05;3.13;;;1.60;;
51828;SDS011;37881;48.024;8.774;2023-08-08T10:13:34;3.88;;;1.58;;
51828;SDS011;37881;48.024;8.774;2023-08-08T10:16:08;3.13;;;1.40;;
51828;SDS011;37881;48.024;8.774;2023-08-08T10:18:35;3.58;;;1.67;;
51828;SDS011;37881;48.024;8.774;2023-08-08T10:21:04;3.05;;;1.17;;
51828;SDS011;37881;48.024;8.774;2023-08-08T10:23:35;2.80;;;1.50;;
51828;SDS011;37881;48.024;8.774;2023-08-08T10:26:04;2.75;;;1.40;;
51828;SDS011;37881;48.024;8.774;2023-08-08T10:28:31;3.22;;;1.20;;
51828;SDS011;37881;48.024;8.774;2023-08-08T10:31:00;2.63;;;1.33;;
51828;SDS011;37881;48.024;8.774;2023-08-08T10:33:41;4.10;;;1.42;;
51828;SDS011;37881;48.024;8.774;2023-08-08T10:36:11;2.80;;;1.50;;
51828;SDS011;37881;48.024;8.774;2023-08-08T10:38:43;3.80;;;1.50;;
51828;SDS011;37881;48.024;8.774;2023-08-08T10:41:11;2.63;;;1.50;;
51828;SDS011;37881;48.024;8.774;2023-08-08T10:43:51;3.22;;;1.50;;
51828;SDS011;37881;48.024;8.774;2023-08-08T10:46:29;2.50;;;1.50;;
51828;SDS011;37881;48.024;8.774;2023-08-08T10:48:58;3.37;;;1.70;;
51828;SDS011;37881;48.024;8.774;2023-08-08T10:51:38;2.75;;;1.40;;
51828;SDS011;37881;48.024;8.774;2023-08-08T10:54:11;2.70;;;1.63;;
51828;SDS011;37881;48.024;8.774;2023-08-08T10:56:38;3.22;;;1.70;;
51828;SDS011;37881;48.024;8.774;2023-08-08T10:59:13;3.88;;;1.60;;
51828;SDS011;37881;48.024;8.774;2023-08-08T11:01:42;3.33;;;1.40;;
51828;SDS011;37881;48.024;8.774;2023-08-08T11:04:11;3.40;;;1.40;;
51828;SDS011;37881;48.024;8.774;2023-08-08T11:06:39;2.83;;;1.42;;
51828;SDS011;37881;48.024;8.774;2023-08-08T11:09:06;4.63;;;1.50;;
51828;SDS011;37881;48.024;8.774;2023-08-08T11:11:37;3.88;;;1.60;;
51828;SDS011;37881;48.024;8.774;2023-08-08T11:16:38;2.88;;;1.60;;
51828;SDS011;37881;48.024;8.774;2023-08-08T11:19:05;3.50;;;1.60;;
51828;SDS011;37881;48.024;8.774;2023-08-08T11:21:35;3.42;;;1.50;;
51828;SDS011;37881;48.024;8.774;2023-08-08T11:24:04;3.67;;;1.60;;
51828;SDS011;37881;48.024;8.774;2023-08-08T11:26:33;3.53;;;1.63;;
51828;SDS011;37881;48.024;8.774;2023-08-08T11:29:01;3.25;;;1.55;;
51828;SDS011;37881;48.024;8.774;2023-08-08T11:31:29;4.10;;;1.70;;
51828;SDS011;37881;48.024;8.774;2023-08-08T11:33:58;3.90;;;1.60;;
51828;SDS011;37881;48.024;8.774;2023-08-08T11:36:26;2.75;;;1.60;;
51828;SDS011;37881;48.024;8.774;2023-08-08T11:38:57;3.20;;;1.57;;
51828;SDS011;37881;48.024;8.774;2023-08-08T11:41:24;3.00;;;1.60;;
51828;SDS011;37881;48.024;8.774;2023-08-08T11:43:52;2.75;;;1.55;;
51828;SDS011;37881;48.024;8.774;2023-08-08T11:46:22;3.97;;;1.55;;
51828;SDS011;37881;48.024;8.774;2023-08-08T11:48:51;3.78;;;1.50;;
51828;SDS011;37881;48.024;8.774;2023-08-08T11:51:17;4.07;;;1.40;;
51828;SDS011;37881;48.024;8.774;2023-08-08T11:53:51;2.55;;;1.40;;
51828;SDS011;37881;48.024;8.774;2023-08-08T11:56:22;2.47;;;1.50;;
51828;SDS011;37881;48.024;8.774;2023-08-08T11:58:49;2.97;;;1.65;;
51828;SDS011;37881;48.024;8.774;2023-08-08T12:01:25;3.03;;;1.70;;
51828;SDS011;37881;48.024;8.774;2023-08-08T12:03:52;3.17;;;1.60;;
51828;SDS011;37881;48.024;8.774;2023-08-08T12:06:22;2.75;;;1.40;;
51828;SDS011;37881;48.024;8.774;2023-08-08T12:08:55;3.92;;;1.42;;
51828;SDS011;37881;48.024;8.774;2023-08-08T12:11:24;2.90;;;1.60;;
51828;SDS011;37881;48.024;8.774;2023-08-08T12:13:57;2.67;;;1.50;;
51828;SDS011;37881;48.024;8.774;2023-08-08T12:16:29;3.40;;;1.70;;
51828;SDS011;37881;48.024;8.774;2023-08-08T12:19:04;3.13;;;1.40;;
51828;SDS011;37881;48.024;8.774;2023-08-08T12:21:36;3.30;;;1.50;;
51828;SDS011;37881;48.024;8.774;2023-08-08T12:24:02;3.30;;;1.60;;
51828;SDS011;37881;48.024;8.774;2023-08-08T12:26:29;3.65;;;1.88;;
51828;SDS011;37881;48.024;8.774;2023-08-08T12:28:56;3.33;;;1.67;;
51828;SDS011;37881;48.024;8.774;2023-08-08T12:31:23;3.60;;;1.70;;
51828;SDS011;37881;48.024;8.774;2023-08-08T12:33:50;3.03;;;1.58;;
51828;SDS011;37881;48.024;8.774;2023-08-08T12:36:18;3.15;;;1.60;;
51828;SDS011;37881;48.024;8.774;2023-08-08T12:38:45;3.03;;;1.58;;
51828;SDS011;37881;48.024;8.774;2023-08-08T12:41:13;2.80;;;1.70;;
51828;SDS011;37881;48.024;8.774;2023-08-08T12:43:40;2.92;;;1.60;;
51828;SDS011;37881;48.024;8.774;2023-08-08T12:46:06;4.07;;;1.60;;
51828;SDS011;37881;48.024;8.774;2023-08-08T12:48:33;2.97;;;1.50;;
51828;SDS011;37881;48.024;8.774;2023-08-08T12:51:00;3.22;;;1.88;;
51828;SDS011;37881;48.024;8.774;2023-08-08T12:53:27;2.83;;;1.67;;
51828;SDS011;37881;48.024;8.774;2023-08-08T12:55:54;3.67;;;1.75;;
51828;SDS011;37881;48.024;8.774;2023-08-08T12:58:21;2.70;;;1.60;;
51828;SDS011;37881;48.024;8.774;2023-08-08T13:00:49;3.15;;;1.60;;
51828;SDS011;37881;48.024;8.774;2023-08-08T13:03:16;2.85;;;1.50;;
51828;SDS011;37881;48.024;8.774;2023-08-08T13:05:43;5.03;;;2.93;;
51828;SDS011;37881;48.024;8.774;2023-08-08T13:08:10;4.15;;;2.03;;
51828;SDS011;37881;48.024;8.774;2023-08-08T13:10:36;4.30;;;1.90;;
51828;SDS011;37881;48.024;8.774;2023-08-08T13:13:03;2.80;;;1.48;;
51828;SDS011;37881;48.024;8.774;2023-08-08T13:15:30;3.22;;;1.63;;
51828;SDS011;37881;48.024;8.774;2023-08-08T13:17:57;3.33;;;1.70;;
51828;SDS011;37881;48.024;8.774;2023-08-08T13:20:27;3.97;;;1.70;;
51828;SDS011;37881;48.024;8.774;2023-08-08T13:22:54;3.00;;;1.98;;
51828;SDS011;37881;48.024;8.774;2023-08-08T13:25:21;3.63;;;1.98;;
51828;SDS011;37881;48.024;8.774;2023-08-08T13:27:48;2.85;;;1.80;;
51828;SDS011;37881;48.024;8.774;2023-08-08T13:30:14;2.83;;;1.70;;
51828;SDS011;37881;48.024;8.774;2023-08-08T13:32:44;3.83;;;1.75;;
51828;SDS011;37881;48.024;8.774;2023-08-08T13:35:11;3.13;;;1.83;;
51828;SDS011;37881;48.024;8.774;2023-08-08T13:37:38;3.15;;;1.70;;
51828;SDS011;37881;48.024;8.774;2023-08-08T13:40:05;3.30;;;1.80;;
51828;SDS011;37881;48.024;8.774;2023-08-08T13:42:32;3.33;;;1.80;;
51828;SDS011;37881;48.024;8.774;2023-08-08T13:44:59;2.83;;;1.75;;
51828;SDS011;37881;48.024;8.774;2023-08-08T13:47:27;2.90;;;1.80;;
51828;SDS011;37881;48.024;8.774;2023-08-08T13:49:54;4.05;;;1.80;;
51828;SDS011;37881;48.024;8.774;2023-08-08T13:52:20;3.72;;;1.60;;
51828;SDS011;37881;48.024;8.774;2023-08-08T13:54:47;4.10;;;1.90;;
51828;SDS011;37881;48.024;8.774;2023-08-08T13:57:14;3.30;;;1.70;;
51828;SDS011;37881;48.024;8.774;2023-08-08T13:59:42;3.10;;;1.70;;
51828;SDS011;37881;48.024;8.774;2023-08-08T14:02:09;5.40;;;2.10;;
51828;SDS011;37881;48.024;8.774;2023-08-08T14:04:36;4.38;;;1.90;;
51828;SDS011;37881;48.024;8.774;2023-08-08T14:07:02;3.37;;;1.90;;
51828;SDS011;37881;48.024;8.774;2023-08-08T14:09:29;3.30;;;1.70;;
51828;SDS011;37881;48.024;8.774;2023-08-08T14:11:56;3.28;;;2.10;;
51828;SDS011;37881;48.024;8.774;2023-08-08T14:14:23;3.10;;;1.67;;
51828;SDS011;37881;48.024;8.774;2023-08-08T14:16:49;3.50;;;1.95;;
51828;SDS011;37881;48.024;8.774;2023-08-08T14:19:19;3.40;;;2.07;;
51828;SDS011;37881;48.024;8.774;2023-08-08T14:21:45;3.65;;;2.08;;
51828;SDS011;37881;48.024;8.774;2023-08-08T14:24:12;4.28;;;2.17;;
51828;SDS011;37881;48.024;8.774;2023-08-08T14:26:39;4.13;;;2.10;;
51828;SDS011;37881;48.024;8.774;2023-08-08T14:29:06;4.57;;;1.92;;
51828;SDS011;37881;48.024;8.774;2023-08-08T14:31:32;3.80;;;1.90;;
51828;SDS011;37881;48.024;8.774;2023-08-08T14:34:11;3.08;;;1.60;;
51828;SDS011;37881;48.024;8.774;2023-08-08T14:36:38;3.85;;;2.00;;
51828;SDS011;37881;48.024;8.774;2023-08-08T14:39:05;3.00;;;1.70;;
51828;SDS011;37881;48.024;8.774;2023-08-08T14:41:32;3.03;;;1.83;;
51828;SDS011;37881;48.024;8.774;2023-08-08T14:43:58;3.53;;;1.90;;
51828;SDS011;37881;48.024;8.774;2023-08-08T14:46:25;3.45;;;1.85;;
51828;SDS011;37881;48.024;8.774;2023-08-08T14:48:52;3.25;;;1.73;;
51828;SDS011;37881;48.024;8.774;2023-08-08T14:51:19;3.75;;;1.92;;
51828;SDS011;37881;48.024;8.774;2023-08-08T14:53:46;3.30;;;1.90;;